Time;durP1;ratioP1;P1;durP2;ratioP2;P2;SDS_P1;SDS_P2;PMS_P1;PMS_P2;Temp;Humidity;BMP_temperature;BMP_pressure;BME280_temperature;BME280_humidity;BME280_pressure;Samples;Min_cycle;Max_cycle;Signal;HPM_P1;HPM_P2
2022/12/30 00:00:59;;;;;;;;;;;5.40;99.90;;;;;;5054423;28;20004;-75
2022/12/30 00:03:25;;;;;;;;;;;5.40;99.90;;;;;;5053877;28;20012;-75
2022/12/30 00:05:50;;;;;;;;;;;5.40;99.90;;;;;;5047934;28;20354;-75
2022/12/30 00:11:00;;;;;;;;;;;5.30;99.90;;;;;;5050113;28;20303;-81
2022/12/30 00:33:08;;;;;;;;;;;5.10;99.90;;;;;;5051530;28;19994;-76
2022/12/30 00:35:35;;;;;;;;;;;5.10;99.90;;;;;;5054330;28;19924;-75
2022/12/30 00:38:01;;;;;;;;;;;5.10;99.90;;;;;;5054261;28;19916;-82
2022/12/30 00:40:26;;;;;;;;;;;5.20;99.90;;;;;;5036970;28;19935;-84
2022/12/30 00:43:10;;;;;;;;;;;5.20;99.90;;;;;;5039248;28;19924;-75
2022/12/30 00:45:38;;;;;;;;;;;5.20;99.90;;;;;;5055054;28;19909;-81
2022/12/30 00:56:17;;;;;;;;;;;5.20;99.90;;;;;;5054740;28;19951;-82
2022/12/30 00:58:43;;;;;;;;;;;5.20;99.90;;;;;;5052667;28;19952;-82
2022/12/30 01:01:09;;;;;;;;;;;5.10;99.90;;;;;;5053345;28;19952;-82
2022/12/30 01:03:34;;;;;;;;;;;5.10;99.90;;;;;;5044521;28;19925;-76
2022/12/30 01:06:07;;;;;;;;;;;5.10;99.90;;;;;;5041627;28;20314;-75
2022/12/30 01:08:33;;;;;;;;;;;5.00;99.90;;;;;;5049321;28;19909;-76
2022/12/30 01:10:59;;;;;;;;;;;5.00;99.90;;;;;;5048514;28;19913;-76
2022/12/30 01:13:24;;;;;;;;;;;5.00;99.90;;;;;;5051297;28;20211;-76
2022/12/30 01:15:50;;;;;;;;;;;4.90;99.90;;;;;;5053287;28;19913;-81
2022/12/30 01:18:16;;;;;;;;;;;4.90;99.90;;;;;;5052610;28;19913;-76
2022/12/30 01:20:41;;;;;;;;;;;4.80;99.90;;;;;;5044679;28;19917;-84
2022/12/30 01:23:07;;;;;;;;;;;4.80;99.90;;;;;;5065330;28;19912;-81
2022/12/30 01:25:32;;;;;;;;;;;4.80;99.90;;;;;;5052434;28;20218;-84
2022/12/30 01:27:58;;;;;;;;;;;4.80;99.90;;;;;;5052767;28;20288;-75
2022/12/30 01:30:24;;;;;;;;;;;4.80;99.90;;;;;;5053448;28;19967;-83
2022/12/30 01:32:49;;;;;;;;;;;4.70;99.90;;;;;;5054510;28;20184;-82
2022/12/30 01:35:15;;;;;;;;;;;4.70;99.90;;;;;;5057156;28;20449;-82
2022/12/30 01:37:41;;;;;;;;;;;4.70;99.90;;;;;;5057590;28;20015;-76
2022/12/30 01:40:07;;;;;;;;;;;4.70;99.90;;;;;;5058528;28;19917;-75
2022/12/30 01:42:37;;;;;;;;;;;4.70;99.90;;;;;;5057283;28;19921;-84
2022/12/30 01:45:18;;;;;;;;;;;4.80;99.90;;;;;;5058081;28;19916;-85
2022/12/30 01:47:50;;;;;;;;;;;4.80;99.90;;;;;;5056944;28;20192;-75
2022/12/30 01:50:48;;;;;;;;;;;4.70;99.90;;;;;;5057319;28;19912;-75
2022/12/30 01:53:17;;;;;;;;;;;4.80;99.90;;;;;;4961570;28;20305;-76
2022/12/30 01:55:50;;;;;;;;;;;4.80;99.90;;;;;;4977171;28;19918;-75
2022/12/30 01:58:20;;;;;;;;;;;4.90;99.90;;;;;;4977012;28;19989;-82
2022/12/30 02:00:45;;;;;;;;;;;4.90;99.90;;;;;;4960647;28;19909;-76
2022/12/30 02:03:11;;;;;;;;;;;4.90;99.90;;;;;;4976483;28;19921;-81
2022/12/30 02:05:39;;;;;;;;;;;4.90;99.90;;;;;;4971710;28;20313;-75
2022/12/30 02:08:12;;;;;;;;;;;4.90;99.90;;;;;;4972538;28;19910;-75
2022/12/30 02:10:41;;;;;;;;;;;4.90;99.90;;;;;;4976962;28;19924;-75
2022/12/30 02:13:09;;;;;;;;;;;4.90;99.90;;;;;;4976647;28;19990;-76
2022/12/30 02:15:40;;;;;;;;;;;4.90;99.90;;;;;;4977441;28;19914;-76
2022/12/30 02:18:20;;;;;;;;;;;4.90;99.90;;;;;;4959214;28;19916;-77
2022/12/30 02:21:04;;;;;;;;;;;4.90;99.90;;;;;;4949839;28;19914;-82
2022/12/30 02:23:35;;;;;;;;;;;4.90;99.90;;;;;;4974939;28;19916;-80
2022/12/30 02:26:10;;;;;;;;;;;4.90;99.90;;;;;;4977209;28;19910;-83
2022/12/30 02:28:55;;;;;;;;;;;4.90;99.90;;;;;;5008246;28;19920;-76
2022/12/30 02:31:21;;;;;;;;;;;4.90;99.90;;;;;;5056842;28;20262;-84
2022/12/30 02:33:50;;;;;;;;;;;4.90;99.90;;;;;;5057929;28;19913;-77
2022/12/30 02:36:36;;;;;;;;;;;4.90;99.90;;;;;;5057520;28;19908;-76
2022/12/30 02:39:01;;;;;;;;;;;4.90;99.90;;;;;;5057460;28;19909;-82
2022/12/30 02:44:38;;;;;;;;;;;4.90;99.90;;;;;;5052958;28;19924;-75
2022/12/30 02:47:07;;;;;;;;;;;4.90;99.90;;;;;;5055726;28;19952;-83
2022/12/30 02:49:34;;;;;;;;;;;4.90;99.90;;;;;;5056466;28;19908;-84
2022/12/30 02:52:18;;;;;;;;;;;4.90;99.90;;;;;;5048613;28;19974;-82
2022/12/30 02:54:45;;;;;;;;;;;4.90;99.90;;;;;;5056671;28;19917;-76
2022/12/30 02:57:25;;;;;;;;;;;4.90;99.90;;;;;;5052651;28;19909;-76
2022/12/30 03:06:02;;;;;;;;;;;5.00;99.90;;;;;;5052756;28;19994;-80
2022/12/30 03:08:42;;;;;;;;;;;5.00;99.90;;;;;;5051539;28;19917;-76
2022/12/30 03:11:13;;;;;;;;;;;5.00;99.90;;;;;;5046401;28;19960;-75
2022/12/30 03:13:59;;;;;;;;;;;5.00;99.90;;;;;;5045902;28;19913;-82
2022/12/30 03:16:35;;;;;;;;;;;5.00;99.90;;;;;;5044031;28;19913;-79
2022/12/30 03:19:03;;;;;;;;;;;5.00;99.90;;;;;;5042989;28;20362;-75
2022/12/30 03:21:31;;;;;;;;;;;5.00;99.90;;;;;;5049054;28;19913;-76
2022/12/30 03:27:04;;;;;;;;;;;5.00;99.90;;;;;;5055313;28;19916;-84
2022/12/30 03:29:32;;;;;;;;;;;5.00;99.90;;;;;;5052123;28;19913;-82
2022/12/30 03:31:58;;;;;;;;;;;5.00;99.90;;;;;;5046497;28;19956;-80
2022/12/30 03:34:25;;;;;;;;;;;4.90;99.90;;;;;;5067678;28;20288;-81
2022/12/30 03:36:53;;;;;;;;;;;5.00;99.90;;;;;;5052685;28;19986;-84
2022/12/30 03:39:28;;;;;;;;;;;4.90;99.90;;;;;;5048016;28;20368;-82
2022/12/30 03:41:54;;;;;;;;;;;4.90;99.90;;;;;;5052210;28;19921;-85
2022/12/30 03:44:20;;;;;;;;;;;4.90;99.90;;;;;;5049446;28;19982;-84
2022/12/30 03:46:46;;;;;;;;;;;4.80;99.90;;;;;;5051870;28;19913;-75
2022/12/30 03:49:13;;;;;;;;;;;4.80;99.90;;;;;;5051380;28;19940;-83
2022/12/30 03:51:38;;;;;;;;;;;4.80;99.90;;;;;;5054039;28;20243;-82
2022/12/30 03:54:04;;;;;;;;;;;4.80;99.90;;;;;;5050968;28;19913;-80
2022/12/30 03:56:30;;;;;;;;;;;4.70;99.90;;;;;;5053424;28;19955;-76
2022/12/30 03:58:55;;;;;;;;;;;4.70;99.90;;;;;;5054351;28;20192;-75
2022/12/30 04:01:21;;;;;;;;;;;4.70;99.90;;;;;;5054978;28;19917;-83
2022/12/30 04:03:47;;;;;;;;;;;4.60;99.90;;;;;;5054985;28;19960;-80
2022/12/30 04:06:12;;;;;;;;;;;4.60;99.90;;;;;;5054213;28;19909;-81
2022/12/30 04:08:38;;;;;;;;;;;4.70;99.90;;;;;;5047428;28;19924;-81
2022/12/30 04:11:04;;;;;;;;;;;4.70;99.90;;;;;;5054356;28;19980;-77
2022/12/30 04:13:30;;;;;;;;;;;4.70;99.90;;;;;;5052799;28;19936;-75
2022/12/30 04:15:56;;;;;;;;;;;4.70;99.90;;;;;;5054225;28;19962;-76
2022/12/30 04:18:22;;;;;;;;;;;4.70;99.90;;;;;;5053183;28;20010;-82
2022/12/30 04:20:48;;;;;;;;;;;4.70;99.90;;;;;;5053652;28;19924;-82
2022/12/30 04:23:14;;;;;;;;;;;4.70;99.90;;;;;;5054389;28;20235;-80
2022/12/30 04:25:40;;;;;;;;;;;4.70;99.90;;;;;;5053790;28;19912;-82
2022/12/30 04:28:06;;;;;;;;;;;4.60;99.90;;;;;;5053189;28;19995;-76
2022/12/30 04:30:32;;;;;;;;;;;4.60;99.90;;;;;;5054470;28;19921;-76
2022/12/30 04:32:58;;;;;;;;;;;4.60;99.90;;;;;;5051522;28;20223;-79
2022/12/30 04:35:24;;;;;;;;;;;4.60;99.90;;;;;;5050858;28;19917;-81
2022/12/30 04:37:50;;;;;;;;;;;4.60;99.90;;;;;;5043926;28;19910;-83
2022/12/30 04:40:16;;;;;;;;;;;4.60;99.90;;;;;;5051522;28;19939;-75
2022/12/30 04:42:42;;;;;;;;;;;4.60;99.90;;;;;;5054991;28;19925;-76
2022/12/30 04:45:10;;;;;;;;;;;4.50;99.90;;;;;;5049845;28;20298;-84
2022/12/30 04:47:36;;;;;;;;;;;4.50;99.90;;;;;;5065624;28;19966;-76
2022/12/30 04:50:02;;;;;;;;;;;4.50;99.90;;;;;;5054071;28;19912;-76
2022/12/30 04:52:28;;;;;;;;;;;4.50;99.90;;;;;;5052000;28;19909;-76
2022/12/30 04:54:53;;;;;;;;;;;4.50;99.90;;;;;;5053788;28;19913;-80
2022/12/30 04:57:19;;;;;;;;;;;4.50;99.90;;;;;;5046718;28;19920;-81
2022/12/30 04:59:44;;;;;;;;;;;4.50;99.90;;;;;;5054077;28;19913;-77
2022/12/30 05:02:10;;;;;;;;;;;4.60;99.90;;;;;;5050951;28;20366;-83
2022/12/30 05:04:36;;;;;;;;;;;4.60;99.90;;;;;;5054756;28;19912;-79
2022/12/30 05:07:02;;;;;;;;;;;4.60;99.90;;;;;;5053642;28;19940;-80
2022/12/30 05:09:28;;;;;;;;;;;4.60;99.90;;;;;;5050757;28;19991;-75
2022/12/30 05:11:54;;;;;;;;;;;4.60;99.90;;;;;;5036751;28;20315;-76
2022/12/30 05:14:19;;;;;;;;;;;4.60;99.90;;;;;;5048640;28;19924;-75
2022/12/30 05:16:45;;;;;;;;;;;4.60;99.90;;;;;;5050835;28;19919;-76
2022/12/30 05:19:11;;;;;;;;;;;4.70;99.90;;;;;;5046054;28;20637;-75
2022/12/30 05:21:37;;;;;;;;;;;4.70;99.90;;;;;;5052766;28;20220;-83
2022/12/30 05:26:46;;;;;;;;;;;4.70;99.90;;;;;;5044896;28;19967;-83
2022/12/30 05:29:12;;;;;;;;;;;4.60;99.90;;;;;;5051212;28;19913;-83
2022/12/30 05:31:38;;;;;;;;;;;4.60;99.90;;;;;;5051284;28;20011;-80
2022/12/30 05:34:03;;;;;;;;;;;4.50;99.90;;;;;;5043458;28;20224;-76
2022/12/30 05:36:29;;;;;;;;;;;4.50;99.90;;;;;;5052092;28;19913;-81
2022/12/30 05:38:55;;;;;;;;;;;4.50;99.90;;;;;;5047522;28;20253;-75
2022/12/30 05:41:20;;;;;;;;;;;4.50;99.90;;;;;;5050450;28;19917;-80
2022/12/30 05:43:47;;;;;;;;;;;4.60;99.90;;;;;;5046750;28;20019;-76
2022/12/30 05:46:12;;;;;;;;;;;4.50;99.90;;;;;;5053370;28;20126;-82
2022/12/30 05:48:38;;;;;;;;;;;4.50;99.90;;;;;;5029944;28;20016;-82
2022/12/30 05:51:04;;;;;;;;;;;4.50;99.90;;;;;;5052704;28;19917;-83
2022/12/30 05:53:30;;;;;;;;;;;4.50;99.90;;;;;;5046814;28;19935;-82
2022/12/30 05:55:55;;;;;;;;;;;4.50;99.90;;;;;;5049376;28;19913;-75
2022/12/30 05:58:21;;;;;;;;;;;4.40;99.90;;;;;;5040566;28;19917;-80
2022/12/30 06:00:47;;;;;;;;;;;4.40;99.90;;;;;;5039859;28;20208;-76
2022/12/30 06:03:12;;;;;;;;;;;4.40;99.90;;;;;;5046584;28;20543;-83
2022/12/30 06:05:38;;;;;;;;;;;4.40;99.90;;;;;;5043641;28;19913;-80
2022/12/30 06:08:04;;;;;;;;;;;4.40;99.90;;;;;;5051941;28;19913;-82
2022/12/30 06:10:29;;;;;;;;;;;4.40;99.90;;;;;;5047724;28;19921;-76
2022/12/30 06:12:55;;;;;;;;;;;4.40;99.90;;;;;;5041970;28;20316;-75
2022/12/30 06:15:21;;;;;;;;;;;4.40;99.90;;;;;;5043246;28;19955;-80
2022/12/30 06:17:46;;;;;;;;;;;4.40;99.90;;;;;;5050976;28;20271;-80
2022/12/30 06:20:12;;;;;;;;;;;4.40;99.90;;;;;;5037710;28;19909;-76
2022/12/30 06:22:38;;;;;;;;;;;4.40;99.90;;;;;;5046766;28;19956;-79
2022/12/30 06:25:04;;;;;;;;;;;4.40;99.90;;;;;;5043488;28;20312;-83
2022/12/30 06:27:29;;;;;;;;;;;4.50;99.90;;;;;;5057650;28;19909;-76
2022/12/30 06:29:55;;;;;;;;;;;4.50;99.90;;;;;;5056811;28;19963;-76
2022/12/30 06:32:21;;;;;;;;;;;4.50;99.90;;;;;;5048794;28;19923;-81
2022/12/30 06:34:46;;;;;;;;;;;4.50;99.90;;;;;;5054134;28;19941;-75
2022/12/30 06:37:12;;;;;;;;;;;4.50;99.90;;;;;;5042671;28;20303;-77
2022/12/30 06:39:38;;;;;;;;;;;4.60;99.90;;;;;;5043763;28;20296;-80
2022/12/30 06:42:04;;;;;;;;;;;4.50;99.90;;;;;;5055565;28;19920;-81
2022/12/30 06:44:29;;;;;;;;;;;4.60;99.90;;;;;;5056282;28;19913;-75
2022/12/30 06:46:55;;;;;;;;;;;4.60;99.90;;;;;;5046645;28;19909;-79
2022/12/30 06:49:20;;;;;;;;;;;4.60;99.90;;;;;;5055000;28;20057;-76
2022/12/30 06:51:46;;;;;;;;;;;4.60;99.90;;;;;;5052499;28;19943;-75
2022/12/30 06:54:12;;;;;;;;;;;4.60;99.90;;;;;;5049307;28;19970;-75
2022/12/30 06:56:37;;;;;;;;;;;4.60;99.90;;;;;;5044589;28;19909;-76
2022/12/30 06:59:03;;;;;;;;;;;4.60;99.90;;;;;;5046046;28;20377;-82
2022/12/30 07:01:29;;;;;;;;;;;4.60;99.90;;;;;;5043323;28;19913;-81
2022/12/30 07:03:54;;;;;;;;;;;4.60;99.90;;;;;;5032619;28;19924;-76
2022/12/30 07:06:20;;;;;;;;;;;4.60;99.90;;;;;;5050157;28;20051;-83
2022/12/30 07:08:46;;;;;;;;;;;4.60;99.90;;;;;;5050877;28;19913;-75
2022/12/30 07:11:11;;;;;;;;;;;4.60;99.90;;;;;;5052628;28;20304;-75
2022/12/30 07:13:37;;;;;;;;;;;4.70;99.90;;;;;;5041586;28;19936;-83
2022/12/30 07:16:03;;;;;;;;;;;4.60;99.90;;;;;;5051358;28;19909;-81
2022/12/30 07:18:28;;;;;;;;;;;4.60;99.90;;;;;;5041277;28;19940;-79
2022/12/30 07:20:54;;;;;;;;;;;4.70;99.90;;;;;;5053406;28;19917;-83
2022/12/30 07:23:20;;;;;;;;;;;4.70;99.90;;;;;;5048906;28;19917;-79
2022/12/30 07:25:46;;;;;;;;;;;4.70;99.90;;;;;;5047278;28;20000;-82
2022/12/30 07:28:12;;;;;;;;;;;4.70;99.90;;;;;;5046096;28;19992;-80
2022/12/30 07:30:37;;;;;;;;;;;4.70;99.90;;;;;;5044812;28;19923;-75
2022/12/30 07:33:03;;;;;;;;;;;4.60;99.90;;;;;;5047345;28;19916;-81
2022/12/30 07:35:29;;;;;;;;;;;4.60;99.90;;;;;;5047806;28;20366;-80
2022/12/30 07:37:55;;;;;;;;;;;4.60;99.90;;;;;;5047767;28;19925;-75
2022/12/30 07:40:20;;;;;;;;;;;4.60;99.90;;;;;;5051572;28;19995;-82
2022/12/30 07:42:46;;;;;;;;;;;4.60;99.90;;;;;;5051148;28;20016;-81
2022/12/30 07:45:12;;;;;;;;;;;4.60;99.90;;;;;;5039569;28;19913;-83
2022/12/30 07:47:37;;;;;;;;;;;4.60;99.90;;;;;;5045344;28;20300;-82
2022/12/30 07:50:06;;;;;;;;;;;4.60;99.90;;;;;;5040733;28;20004;-84
2022/12/30 07:52:32;;;;;;;;;;;4.60;99.90;;;;;;5050163;28;19928;-83
2022/12/30 07:54:58;;;;;;;;;;;4.60;99.90;;;;;;5049505;28;19909;-74
2022/12/30 07:57:23;;;;;;;;;;;4.60;99.90;;;;;;5045123;28;20003;-81
2022/12/30 07:59:49;;;;;;;;;;;4.60;99.90;;;;;;5045895;28;19916;-82
2022/12/30 08:02:15;;;;;;;;;;;4.60;99.90;;;;;;5046435;28;19917;-75
2022/12/30 08:04:40;;;;;;;;;;;4.60;99.90;;;;;;5040095;28;20296;-83
2022/12/30 08:07:06;;;;;;;;;;;4.60;99.90;;;;;;5041474;28;19914;-76
2022/12/30 08:09:31;;;;;;;;;;;4.60;99.90;;;;;;5044581;28;19913;-82
2022/12/30 08:11:57;;;;;;;;;;;4.70;99.90;;;;;;5040586;28;19917;-86
2022/12/30 08:14:24;;;;;;;;;;;4.70;99.90;;;;;;5046697;28;19917;-84
2022/12/30 08:16:50;;;;;;;;;;;4.70;99.90;;;;;;5051668;28;19952;-77
2022/12/30 08:19:15;;;;;;;;;;;4.70;99.90;;;;;;5049874;28;20308;-77
2022/12/30 08:21:41;;;;;;;;;;;4.80;99.90;;;;;;5047983;28;19913;-75
2022/12/30 08:24:08;;;;;;;;;;;4.80;99.90;;;;;;5040700;28;19913;-80
2022/12/30 08:26:34;;;;;;;;;;;4.80;99.90;;;;;;5046730;28;19920;-75
2022/12/30 08:29:00;;;;;;;;;;;4.90;99.90;;;;;;5038077;28;19913;-75
2022/12/30 08:31:27;;;;;;;;;;;4.90;99.90;;;;;;5050096;28;19917;-75
2022/12/30 08:33:53;;;;;;;;;;;5.00;99.90;;;;;;5045005;28;19909;-82
2022/12/30 08:36:20;;;;;;;;;;;5.00;99.90;;;;;;5043714;28;19959;-81
2022/12/30 08:38:47;;;;;;;;;;;5.10;99.90;;;;;;5043109;28;19909;-75
2022/12/30 08:41:20;;;;;;;;;;;5.20;99.90;;;;;;5046239;28;20232;-79
2022/12/30 08:43:46;;;;;;;;;;;5.20;99.90;;;;;;5043517;28;19913;-75
2022/12/30 08:46:12;;;;;;;;;;;5.20;99.90;;;;;;5044910;28;19967;-81
2022/12/30 08:48:38;;;;;;;;;;;5.30;99.90;;;;;;5043117;28;20258;-81
2022/12/30 08:51:04;;;;;;;;;;;5.30;99.90;;;;;;5050847;28;19928;-81
2022/12/30 08:53:30;;;;;;;;;;;5.30;99.90;;;;;;5037389;28;19913;-81
2022/12/30 08:56:04;;;;;;;;;;;5.30;99.90;;;;;;5053226;28;19974;-81
2022/12/30 08:58:30;;;;;;;;;;;5.30;99.90;;;;;;5051219;28;19924;-84
2022/12/30 09:00:56;;;;;;;;;;;5.30;99.90;;;;;;5050562;28;19913;-79
2022/12/30 09:03:22;;;;;;;;;;;5.40;99.90;;;;;;5042110;28;19917;-78
2022/12/30 09:05:52;;;;;;;;;;;5.40;99.90;;;;;;5048859;28;19936;-75
2022/12/30 09:08:18;;;;;;;;;;;5.40;99.90;;;;;;5040869;28;19913;-75
2022/12/30 09:10:43;;;;;;;;;;;5.50;99.90;;;;;;5048991;28;19916;-80
2022/12/30 09:13:09;;;;;;;;;;;5.50;99.90;;;;;;5052237;28;19916;-82
2022/12/30 09:15:34;;;;;;;;;;;5.50;99.90;;;;;;5042079;28;19920;-83
2022/12/30 09:18:00;;;;;;;;;;;5.60;99.90;;;;;;5043385;28;20004;-82
2022/12/30 09:20:25;;;;;;;;;;;5.60;99.90;;;;;;5043628;28;19963;-76
2022/12/30 09:22:51;;;;;;;;;;;5.60;99.90;;;;;;5044552;28;19921;-81
2022/12/30 09:25:17;;;;;;;;;;;5.70;99.90;;;;;;5042662;28;19908;-81
2022/12/30 09:27:42;;;;;;;;;;;5.70;99.90;;;;;;5048480;28;20300;-80
2022/12/30 09:30:08;;;;;;;;;;;5.70;99.90;;;;;;5047364;28;20366;-81
2022/12/30 09:32:34;;;;;;;;;;;5.80;99.90;;;;;;5046292;28;20220;-83
2022/12/30 09:34:59;;;;;;;;;;;5.90;99.90;;;;;;5046462;28;19982;-81
2022/12/30 09:37:25;;;;;;;;;;;5.90;99.90;;;;;;5045792;28;19935;-76
2022/12/30 09:39:51;;;;;;;;;;;5.90;99.90;;;;;;5041945;28;20219;-81
2022/12/30 09:45:05;;;;;;;;;;;6.00;99.90;;;;;;5043396;28;19923;-80
2022/12/30 09:47:33;;;;;;;;;;;6.00;99.90;;;;;;5048723;28;19912;-74
2022/12/30 09:50:18;;;;;;;;;;;6.00;99.90;;;;;;5047516;28;19909;-80
2022/12/30 09:52:51;;;;;;;;;;;6.10;99.90;;;;;;5051797;28;19917;-76
2022/12/30 09:55:20;;;;;;;;;;;6.10;99.90;;;;;;5050032;28;19971;-75
2022/12/30 09:57:48;;;;;;;;;;;6.20;99.90;;;;;;5050314;28;19919;-76
2022/12/30 10:00:17;;;;;;;;;;;6.20;99.90;;;;;;5045632;28;19913;-81
2022/12/30 10:02:48;;;;;;;;;;;6.30;99.90;;;;;;5051330;28;20371;-82
2022/12/30 10:05:14;;;;;;;;;;;6.30;99.90;;;;;;5049369;28;19909;-80
2022/12/30 10:08:02;;;;;;;;;;;6.40;99.90;;;;;;5051694;28;20304;-74
2022/12/30 10:10:35;;;;;;;;;;;6.40;99.90;;;;;;5047478;28;19917;-81
2022/12/30 10:13:17;;;;;;;;;;;6.50;99.90;;;;;;5042468;28;20359;-86
2022/12/30 10:15:46;;;;;;;;;;;6.50;99.90;;;;;;5057419;28;19966;-84
2022/12/30 10:18:18;;;;;;;;;;;6.60;99.90;;;;;;5044547;28;20330;-87
2022/12/30 10:20:48;;;;;;;;;;;6.60;99.90;;;;;;5050009;28;19913;-75
2022/12/30 10:23:16;;;;;;;;;;;6.70;99.90;;;;;;5054638;28;19939;-80
2022/12/30 10:25:42;;;;;;;;;;;6.70;99.90;;;;;;5048654;28;20216;-81
2022/12/30 10:28:09;;;;;;;;;;;6.80;99.90;;;;;;5046416;28;19940;-75
2022/12/30 10:30:40;;;;;;;;;;;6.80;99.90;;;;;;5048913;28;19927;-77
2022/12/30 10:33:07;;;;;;;;;;;6.90;99.90;;;;;;5049286;28;19913;-76
2022/12/30 10:35:33;;;;;;;;;;;6.90;99.90;;;;;;5054381;28;19958;-83
2022/12/30 10:38:19;;;;;;;;;;;6.90;99.90;;;;;;5050668;28;19919;-77
2022/12/30 10:40:56;;;;;;;;;;;7.00;99.90;;;;;;5053756;28;19916;-76
2022/12/30 10:43:25;;;;;;;;;;;7.10;99.90;;;;;;5041879;28;19936;-77
2022/12/30 10:46:03;;;;;;;;;;;7.10;99.90;;;;;;5044499;28;19909;-83
2022/12/30 10:48:54;;;;;;;;;;;7.10;99.90;;;;;;5048901;28;19913;-84
2022/12/30 10:51:20;;;;;;;;;;;7.20;99.90;;;;;;5051397;28;19932;-81
2022/12/30 10:53:48;;;;;;;;;;;7.20;99.90;;;;;;5055114;28;19909;-75
2022/12/30 10:56:24;;;;;;;;;;;7.20;99.90;;;;;;5053051;28;19924;-83
2022/12/30 10:58:50;;;;;;;;;;;7.20;99.90;;;;;;5052997;28;19909;-76
2022/12/30 11:01:21;;;;;;;;;;;7.20;99.90;;;;;;5056520;28;19917;-74
2022/12/30 11:03:49;;;;;;;;;;;7.30;99.90;;;;;;5049225;28;19916;-76
2022/12/30 11:06:18;;;;;;;;;;;7.30;99.90;;;;;;5054947;28;20216;-77
2022/12/30 11:08:44;;;;;;;;;;;7.30;99.90;;;;;;5055543;28;19912;-76
2022/12/30 11:11:10;;;;;;;;;;;7.40;99.90;;;;;;5056581;28;19923;-75
2022/12/30 11:16:28;;;;;;;;;;;7.40;99.90;;;;;;5050039;28;19939;-75
2022/12/30 11:18:55;;;;;;;;;;;7.40;99.90;;;;;;5050782;28;19913;-77
2022/12/30 11:21:26;;;;;;;;;;;7.50;99.90;;;;;;5052869;28;20621;-82
2022/12/30 11:23:53;;;;;;;;;;;7.50;99.90;;;;;;5055782;28;19913;-75
2022/12/30 11:26:22;;;;;;;;;;;7.50;99.90;;;;;;5053233;28;19913;-78
2022/12/30 11:28:50;;;;;;;;;;;7.50;99.90;;;;;;5052034;28;20007;-80
2022/12/30 11:31:16;;;;;;;;;;;7.50;99.90;;;;;;5049948;28;19923;-76
2022/12/30 11:33:50;;;;;;;;;;;7.50;99.90;;;;;;5047525;28;19920;-77
2022/12/30 11:36:21;;;;;;;;;;;7.60;99.90;;;;;;5056570;28;20059;-75
2022/12/30 11:38:48;;;;;;;;;;;7.60;99.90;;;;;;5042546;28;19917;-77
2022/12/30 11:41:14;;;;;;;;;;;7.70;99.90;;;;;;5044967;28;20556;-81
2022/12/30 11:43:40;;;;;;;;;;;7.70;99.90;;;;;;5041785;28;20204;-83
2022/12/30 11:46:14;;;;;;;;;;;7.70;99.90;;;;;;5049000;28;19966;-76
2022/12/30 11:48:45;;;;;;;;;;;7.80;99.90;;;;;;5048407;28;19913;-76
2022/12/30 11:51:24;;;;;;;;;;;7.80;99.90;;;;;;5040368;28;19917;-82
2022/12/30 11:54:00;;;;;;;;;;;7.80;99.90;;;;;;5039308;28;20032;-75
2022/12/30 11:56:26;;;;;;;;;;;7.80;99.90;;;;;;5041627;28;19917;-75
2022/12/30 11:58:52;;;;;;;;;;;7.80;99.90;;;;;;5050157;28;19917;-77
2022/12/30 12:01:17;;;;;;;;;;;7.90;99.90;;;;;;5041575;28;19955;-77
2022/12/30 12:03:51;;;;;;;;;;;7.90;99.90;;;;;;5050979;28;19920;-75
2022/12/30 12:06:17;;;;;;;;;;;7.90;99.90;;;;;;5053561;28;19931;-76
2022/12/30 12:08:46;;;;;;;;;;;8.00;99.90;;;;;;5055334;28;19909;-76
2022/12/30 12:11:15;;;;;;;;;;;8.00;99.90;;;;;;5045438;28;20346;-80
2022/12/30 12:14:00;;;;;;;;;;;8.10;99.90;;;;;;5054286;28;19920;-76
2022/12/30 12:16:45;;;;;;;;;;;8.10;99.90;;;;;;5047197;28;19954;-75
2022/12/30 12:19:19;;;;;;;;;;;8.10;99.90;;;;;;5050581;28;19913;-79
2022/12/30 12:21:46;;;;;;;;;;;8.10;99.90;;;;;;5059446;28;20328;-75
2022/12/30 12:24:31;;;;;;;;;;;8.10;99.90;;;;;;5043679;28;19920;-82
2022/12/30 12:27:03;;;;;;;;;;;8.10;99.90;;;;;;5051937;28;19912;-75
2022/12/30 12:29:28;;;;;;;;;;;8.10;99.90;;;;;;5046634;28;20286;-77
2022/12/30 12:32:01;;;;;;;;;;;8.10;99.90;;;;;;5046951;28;20083;-82
2022/12/30 12:34:49;;;;;;;;;;;8.10;99.90;;;;;;5047353;28;19924;-75
2022/12/30 12:37:15;;;;;;;;;;;8.20;99.90;;;;;;5065587;28;19921;-82
2022/12/30 12:39:43;;;;;;;;;;;8.20;99.90;;;;;;5047312;28;19946;-85
2022/12/30 12:42:29;;;;;;;;;;;8.10;99.90;;;;;;5046058;28;20371;-79
2022/12/30 12:45:09;;;;;;;;;;;8.10;99.90;;;;;;5034046;28;19987;-79
2022/12/30 12:47:56;;;;;;;;;;;8.10;99.90;;;;;;5049730;28;19909;-76
2022/12/30 12:50:21;;;;;;;;;;;8.20;99.90;;;;;;5053978;28;19963;-75
2022/12/30 12:53:06;;;;;;;;;;;8.20;99.90;;;;;;5053311;28;19909;-79
2022/12/30 12:55:31;;;;;;;;;;;8.10;99.90;;;;;;5057955;28;20581;-77
2022/12/30 12:58:07;;;;;;;;;;;8.10;99.90;;;;;;5055213;28;20055;-76
2022/12/30 13:00:42;;;;;;;;;;;8.10;99.90;;;;;;5043632;28;19913;-76
2022/12/30 13:03:26;;;;;;;;;;;8.20;99.90;;;;;;5048327;28;20074;-75
2022/12/30 13:05:55;;;;;;;;;;;8.30;99.90;;;;;;5040803;28;19963;-81
2022/12/30 13:08:30;;;;;;;;;;;8.30;99.90;;;;;;5048899;28;19909;-74
2022/12/30 13:11:08;;;;;;;;;;;8.30;99.90;;;;;;5050876;28;20292;-76
2022/12/30 13:13:49;;;;;;;;;;;8.40;99.90;;;;;;5049729;28;19909;-82
2022/12/30 13:16:17;;;;;;;;;;;8.30;99.90;;;;;;5047532;28;20161;-84
2022/12/30 13:18:45;;;;;;;;;;;8.40;99.90;;;;;;5048535;28;19936;-76
2022/12/30 13:21:13;;;;;;;;;;;8.40;99.90;;;;;;5050862;28;19913;-76
2022/12/30 13:23:49;;;;;;;;;;;8.40;99.90;;;;;;5048021;28;19909;-76
2022/12/30 13:26:15;;;;;;;;;;;8.40;99.90;;;;;;5044129;28;19919;-77
2022/12/30 13:28:43;;;;;;;;;;;8.40;99.90;;;;;;5047505;28;20604;-79
2022/12/30 13:31:09;;;;;;;;;;;8.40;99.90;;;;;;5036108;28;20145;-79
2022/12/30 13:33:41;;;;;;;;;;;8.40;99.90;;;;;;5040147;28;20315;-85
2022/12/30 13:36:16;;;;;;;;;;;8.30;99.90;;;;;;5048540;28;19978;-77
2022/12/30 13:39:10;;;;;;;;;;;8.30;99.90;;;;;;5040406;28;20307;-78
2022/12/30 13:41:55;;;;;;;;;;;8.30;99.90;;;;;;5024745;28;19971;-76
2022/12/30 13:44:21;;;;;;;;;;;8.40;99.90;;;;;;5042538;28;19921;-83
2022/12/30 13:46:49;;;;;;;;;;;8.30;99.90;;;;;;5041400;28;19920;-78
2022/12/30 13:49:18;;;;;;;;;;;8.30;99.90;;;;;;5050105;28;20511;-76
2022/12/30 13:51:54;;;;;;;;;;;8.30;99.90;;;;;;5062011;28;20229;-84
2022/12/30 13:54:20;;;;;;;;;;;8.40;99.90;;;;;;5044555;28;20391;-83
2022/12/30 13:56:49;;;;;;;;;;;8.50;99.90;;;;;;5050851;28;19962;-76
2022/12/30 13:59:31;;;;;;;;;;;8.40;99.90;;;;;;5052392;28;19919;-83
2022/12/30 14:02:16;;;;;;;;;;;8.40;99.90;;;;;;5049512;28;19924;-75
2022/12/30 14:04:44;;;;;;;;;;;8.40;99.90;;;;;;5052486;28;20387;-75
2022/12/30 14:07:30;;;;;;;;;;;8.40;99.90;;;;;;5048723;28;20360;-75
2022/12/30 14:10:14;;;;;;;;;;;8.40;99.90;;;;;;5050914;28;19920;-81
2022/12/30 14:12:40;;;;;;;;;;;8.40;99.90;;;;;;5052204;28;19920;-77
2022/12/30 14:15:45;;;;;;;;;;;8.40;99.90;;;;;;5052364;28;20054;-87
2022/12/30 14:18:10;;;;;;;;;;;8.40;99.90;;;;;;5050000;28;19999;-75
2022/12/30 14:20:37;;;;;;;;;;;8.50;99.90;;;;;;5051611;28;20024;-74
2022/12/30 14:23:04;;;;;;;;;;;8.50;99.90;;;;;;5050831;28;19964;-76
2022/12/30 14:25:29;;;;;;;;;;;8.50;99.90;;;;;;5034632;28;19917;-82
2022/12/30 14:28:01;;;;;;;;;;;8.50;99.90;;;;;;5053051;28;20032;-79
2022/12/30 14:30:31;;;;;;;;;;;8.50;99.90;;;;;;5050298;28;20251;-82
2022/12/30 14:32:58;;;;;;;;;;;8.50;99.90;;;;;;5052355;28;20334;-78
2022/12/30 14:35:24;;;;;;;;;;;8.50;99.90;;;;;;5051854;28;19913;-77
2022/12/30 14:37:50;;;;;;;;;;;8.50;99.90;;;;;;5053844;28;20302;-80
2022/12/30 14:40:22;;;;;;;;;;;8.50;99.90;;;;;;5050864;28;19913;-80
2022/12/30 14:42:52;;;;;;;;;;;8.40;99.90;;;;;;5055364;28;20025;-79
2022/12/30 14:45:23;;;;;;;;;;;8.40;99.90;;;;;;5053245;28;19921;-86
2022/12/30 14:47:49;;;;;;;;;;;8.40;99.90;;;;;;5055388;28;19936;-75
2022/12/30 14:50:16;;;;;;;;;;;8.50;99.90;;;;;;5052900;28;20300;-79
2022/12/30 14:52:56;;;;;;;;;;;8.40;99.90;;;;;;5055740;28;19931;-81
2022/12/30 14:55:24;;;;;;;;;;;8.50;99.90;;;;;;5055435;28;20380;-80
2022/12/30 14:58:09;;;;;;;;;;;8.50;99.90;;;;;;5055670;28;20331;-80
2022/12/30 15:00:36;;;;;;;;;;;8.50;99.90;;;;;;5053524;28;19936;-78
2022/12/30 15:03:02;;;;;;;;;;;8.50;99.90;;;;;;5056374;28;19923;-83
2022/12/30 15:05:46;;;;;;;;;;;8.50;99.90;;;;;;5052514;28;19913;-86
2022/12/30 15:08:13;;;;;;;;;;;8.60;99.90;;;;;;5052119;28;19921;-85
2022/12/30 15:10:39;;;;;;;;;;;8.60;99.90;;;;;;5055747;28;20307;-80
2022/12/30 15:13:04;;;;;;;;;;;8.60;99.90;;;;;;5054756;28;19924;-82
2022/12/30 15:15:30;;;;;;;;;;;8.50;99.90;;;;;;5055115;28;20373;-81
2022/12/30 15:17:56;;;;;;;;;;;8.60;99.90;;;;;;5055851;28;19920;-80
2022/12/30 15:20:29;;;;;;;;;;;8.60;99.90;;;;;;5055440;28;19923;-81
2022/12/30 15:22:55;;;;;;;;;;;8.60;99.90;;;;;;5054945;28;19924;-82
2022/12/30 15:25:21;;;;;;;;;;;8.60;99.90;;;;;;5055030;28;19936;-80
2022/12/30 15:27:52;;;;;;;;;;;8.70;99.90;;;;;;5055417;28;20000;-81
2022/12/30 15:30:18;;;;;;;;;;;8.70;99.90;;;;;;5054443;28;19917;-79
2022/12/30 15:32:44;;;;;;;;;;;8.60;99.90;;;;;;5052882;28;19916;-79